sensor_id;sensor_type;location;lat;lon;timestamp;temperature;humidity
70269;DHT22;58514;48.398;-4.274;2022-09-01T00:01:51;21.30;68.50
70269;DHT22;58514;48.398;-4.274;2022-09-01T00:04:21;21.30;68.70
70269;DHT22;58514;48.398;-4.274;2022-09-01T00:06:47;21.30;69.00
70269;DHT22;58514;48.398;-4.274;2022-09-01T00:09:16;21.30;68.90
70269;DHT22;58514;48.398;-4.274;2022-09-01T00:11:45;21.30;68.70
70269;DHT22;58514;48.398;-4.274;2022-09-01T00:14:12;21.30;68.90
70269;DHT22;58514;48.398;-4.274;2022-09-01T00:16:38;21.30;69.30
70269;DHT22;58514;48.398;-4.274;2022-09-01T00:19:04;21.30;69.20
70269;DHT22;58514;48.398;-4.274;2022-09-01T00:21:34;21.30;69.80
70269;DHT22;58514;48.398;-4.274;2022-09-01T00:24:01;21.30;69.10
70269;DHT22;58514;48.398;-4.274;2022-09-01T00:26:26;21.30;69.10
70269;DHT22;58514;48.398;-4.274;2022-09-01T00:28:52;21.30;70.10
70269;DHT22;58514;48.398;-4.274;2022-09-01T00:31:19;21.20;69.10
70269;DHT22;58514;48.398;-4.274;2022-09-01T00:33:46;21.20;68.70
70269;DHT22;58514;48.398;-4.274;2022-09-01T00:36:12;21.20;69.70
70269;DHT22;58514;48.398;-4.274;2022-09-01T00:38:39;21.10;69.40
70269;DHT22;58514;48.398;-4.274;2022-09-01T00:41:05;21.10;69.00
70269;DHT22;58514;48.398;-4.274;2022-09-01T00:43:45;21.10;69.60
70269;DHT22;58514;48.398;-4.274;2022-09-01T00:46:20;21.10;69.70
70269;DHT22;58514;48.398;-4.274;2022-09-01T00:48:52;21.10;70.10
70269;DHT22;58514;48.398;-4.274;2022-09-01T00:51:18;21.10;70.30
70269;DHT22;58514;48.398;-4.274;2022-09-01T00:53:44;21.10;69.80
70269;DHT22;58514;48.398;-4.274;2022-09-01T00:56:10;21.10;70.10
70269;DHT22;58514;48.398;-4.274;2022-09-01T00:58:37;21.00;69.70
70269;DHT22;58514;48.398;-4.274;2022-09-01T01:01:06;21.00;70.20
70269;DHT22;58514;48.398;-4.274;2022-09-01T01:03:33;21.00;70.50
70269;DHT22;58514;48.398;-4.274;2022-09-01T01:06:02;20.90;72.20
70269;DHT22;58514;48.398;-4.274;2022-09-01T01:08:32;20.90;70.50
70269;DHT22;58514;48.398;-4.274;2022-09-01T01:11:00;20.90;71.30
70269;DHT22;58514;48.398;-4.274;2022-09-01T01:13:26;20.90;71.00
70269;DHT22;58514;48.398;-4.274;2022-09-01T01:15:57;20.90;70.80
70269;DHT22;58514;48.398;-4.274;2022-09-01T01:18:24;20.90;70.60
70269;DHT22;58514;48.398;-4.274;2022-09-01T01:21:03;20.80;71.00
70269;DHT22;58514;48.398;-4.274;2022-09-01T01:24:05;20.80;71.00
70269;DHT22;58514;48.398;-4.274;2022-09-01T01:26:31;20.80;71.10
70269;DHT22;58514;48.398;-4.274;2022-09-01T01:28:57;20.70;71.40
70269;DHT22;58514;48.398;-4.274;2022-09-01T01:31:23;20.80;72.00
70269;DHT22;58514;48.398;-4.274;2022-09-01T01:33:54;20.80;72.70
70269;DHT22;58514;48.398;-4.274;2022-09-01T01:36:29;20.80;71.70
70269;DHT22;58514;48.398;-4.274;2022-09-01T01:41:30;20.70;71.70
70269;DHT22;58514;48.398;-4.274;2022-09-01T01:44:00;20.70;71.90
70269;DHT22;58514;48.398;-4.274;2022-09-01T01:46:29;20.70;71.70
70269;DHT22;58514;48.398;-4.274;2022-09-01T01:48:56;20.70;72.00
70269;DHT22;58514;48.398;-4.274;2022-09-01T01:51:21;20.70;72.00
70269;DHT22;58514;48.398;-4.274;2022-09-01T01:53:54;20.70;72.00
70269;DHT22;58514;48.398;-4.274;2022-09-01T01:56:21;20.70;72.30
70269;DHT22;58514;48.398;-4.274;2022-09-01T01:58:55;20.70;71.80
70269;DHT22;58514;48.398;-4.274;2022-09-01T02:01:23;20.70;72.40
70269;DHT22;58514;48.398;-4.274;2022-09-01T02:03:50;20.70;72.40
70269;DHT22;58514;48.398;-4.274;2022-09-01T02:06:20;20.70;72.10
70269;DHT22;58514;48.398;-4.274;2022-09-01T02:08:51;20.70;72.30
70269;DHT22;58514;48.398;-4.274;2022-09-01T02:11:19;20.70;72.30
70269;DHT22;58514;48.398;-4.274;2022-09-01T02:13:45;20.70;72.30
70269;DHT22;58514;48.398;-4.274;2022-09-01T02:16:11;20.70;72.10
70269;DHT22;58514;48.398;-4.274;2022-09-01T02:18:38;20.70;73.00
70269;DHT22;58514;48.398;-4.274;2022-09-01T02:21:08;20.60;73.60
70269;DHT22;58514;48.398;-4.274;2022-09-01T02:23:36;20.60;72.40
70269;DHT22;58514;48.398;-4.274;2022-09-01T02:26:02;20.60;73.80
70269;DHT22;58514;48.398;-4.274;2022-09-01T02:28:31;20.60;73.70
70269;DHT22;58514;48.398;-4.274;2022-09-01T02:30:59;20.60;73.10
70269;DHT22;58514;48.398;-4.274;2022-09-01T02:33:27;20.60;73.50
70269;DHT22;58514;48.398;-4.274;2022-09-01T02:36:13;20.60;73.60
70269;DHT22;58514;48.398;-4.274;2022-09-01T02:38:41;20.60;73.90
70269;DHT22;58514;48.398;-4.274;2022-09-01T02:41:09;20.60;73.10
70269;DHT22;58514;48.398;-4.274;2022-09-01T02:43:37;20.60;73.70
70269;DHT22;58514;48.398;-4.274;2022-09-01T02:46:05;20.60;73.40
70269;DHT22;58514;48.398;-4.274;2022-09-01T02:48:32;20.60;73.90
70269;DHT22;58514;48.398;-4.274;2022-09-01T02:51:07;20.60;73.70
70269;DHT22;58514;48.398;-4.274;2022-09-01T02:53:37;20.60;74.40
70269;DHT22;58514;48.398;-4.274;2022-09-01T02:56:06;20.60;73.50
70269;DHT22;58514;48.398;-4.274;2022-09-01T02:58:37;20.60;73.70
70269;DHT22;58514;48.398;-4.274;2022-09-01T03:01:28;20.60;74.60
70269;DHT22;58514;48.398;-4.274;2022-09-01T03:03:58;20.60;73.80
70269;DHT22;58514;48.398;-4.274;2022-09-01T03:06:24;20.60;74.40
70269;DHT22;58514;48.398;-4.274;2022-09-01T03:08:52;20.60;74.70
70269;DHT22;58514;48.398;-4.274;2022-09-01T03:11:18;20.60;74.10
70269;DHT22;58514;48.398;-4.274;2022-09-01T03:13:44;20.50;74.70
70269;DHT22;58514;48.398;-4.274;2022-09-01T03:16:11;20.50;76.00
70269;DHT22;58514;48.398;-4.274;2022-09-01T03:18:37;20.50;74.90
70269;DHT22;58514;48.398;-4.274;2022-09-01T03:21:04;20.50;74.60
70269;DHT22;58514;48.398;-4.274;2022-09-01T03:23:31;20.40;74.70
70269;DHT22;58514;48.398;-4.274;2022-09-01T03:25:59;20.50;74.50
70269;DHT22;58514;48.398;-4.274;2022-09-01T03:28:26;20.50;75.00
70269;DHT22;58514;48.398;-4.274;2022-09-01T03:30:54;20.50;75.80
70269;DHT22;58514;48.398;-4.274;2022-09-01T03:33:22;20.50;75.50
70269;DHT22;58514;48.398;-4.274;2022-09-01T03:35:49;20.60;75.20
70269;DHT22;58514;48.398;-4.274;2022-09-01T03:38:15;20.50;75.40
70269;DHT22;58514;48.398;-4.274;2022-09-01T03:40:48;20.60;75.40
70269;DHT22;58514;48.398;-4.274;2022-09-01T03:43:14;20.60;75.00
70269;DHT22;58514;48.398;-4.274;2022-09-01T03:45:41;20.60;76.10
70269;DHT22;58514;48.398;-4.274;2022-09-01T03:48:08;20.60;74.90
70269;DHT22;58514;48.398;-4.274;2022-09-01T03:50:37;20.60;75.20
70269;DHT22;58514;48.398;-4.274;2022-09-01T03:53:09;20.60;75.40
70269;DHT22;58514;48.398;-4.274;2022-09-01T03:55:35;20.60;75.20
70269;DHT22;58514;48.398;-4.274;2022-09-01T03:58:05;20.60;74.90
70269;DHT22;58514;48.398;-4.274;2022-09-01T04:00:34;20.60;74.60
70269;DHT22;58514;48.398;-4.274;2022-09-01T04:03:03;20.60;75.10
70269;DHT22;58514;48.398;-4.274;2022-09-01T04:05:30;20.60;75.20
70269;DHT22;58514;48.398;-4.274;2022-09-01T04:08:00;20.60;75.40
70269;DHT22;58514;48.398;-4.274;2022-09-01T04:10:29;20.60;75.40
70269;DHT22;58514;48.398;-4.274;2022-09-01T04:12:57;20.60;75.40
70269;DHT22;58514;48.398;-4.274;2022-09-01T04:15:24;20.60;76.70
70269;DHT22;58514;48.398;-4.274;2022-09-01T04:17:51;20.50;75.80
70269;DHT22;58514;48.398;-4.274;2022-09-01T04:20:45;20.50;76.20
70269;DHT22;58514;48.398;-4.274;2022-09-01T04:23:30;20.50;76.00
70269;DHT22;58514;48.398;-4.274;2022-09-01T04:26:02;20.50;76.00
70269;DHT22;58514;48.398;-4.274;2022-09-01T04:28:42;20.50;76.30
70269;DHT22;58514;48.398;-4.274;2022-09-01T04:31:13;20.50;77.00
70269;DHT22;58514;48.398;-4.274;2022-09-01T04:33:39;20.50;76.10
70269;DHT22;58514;48.398;-4.274;2022-09-01T04:36:13;20.50;76.60
70269;DHT22;58514;48.398;-4.274;2022-09-01T04:38:41;20.50;78.00
70269;DHT22;58514;48.398;-4.274;2022-09-01T04:41:07;20.50;77.10
70269;DHT22;58514;48.398;-4.274;2022-09-01T04:43:34;20.50;77.40
70269;DHT22;58514;48.398;-4.274;2022-09-01T04:46:00;20.60;76.90
70269;DHT22;58514;48.398;-4.274;2022-09-01T04:48:27;20.50;77.20
70269;DHT22;58514;48.398;-4.274;2022-09-01T04:50:53;20.50;76.60
70269;DHT22;58514;48.398;-4.274;2022-09-01T04:53:21;20.50;77.50
70269;DHT22;58514;48.398;-4.274;2022-09-01T04:55:49;20.50;77.50
70269;DHT22;58514;48.398;-4.274;2022-09-01T04:58:16;20.50;77.80
70269;DHT22;58514;48.398;-4.274;2022-09-01T05:00:48;20.60;78.40
70269;DHT22;58514;48.398;-4.274;2022-09-01T05:03:16;20.50;77.30
70269;DHT22;58514;48.398;-4.274;2022-09-01T05:05:46;20.50;77.90
70269;DHT22;58514;48.398;-4.274;2022-09-01T05:08:18;20.50;77.70
70269;DHT22;58514;48.398;-4.274;2022-09-01T05:10:48;20.50;77.40
70269;DHT22;58514;48.398;-4.274;2022-09-01T05:13:20;20.50;77.20
70269;DHT22;58514;48.398;-4.274;2022-09-01T05:15:59;20.50;77.90
70269;DHT22;58514;48.398;-4.274;2022-09-01T05:18:27;20.60;77.80
70269;DHT22;58514;48.398;-4.274;2022-09-01T05:20:53;20.60;78.40
70269;DHT22;58514;48.398;-4.274;2022-09-01T05:23:20;20.60;77.50
70269;DHT22;58514;48.398;-4.274;2022-09-01T05:25:48;20.60;77.80
70269;DHT22;58514;48.398;-4.274;2022-09-01T05:28:17;20.50;77.80
70269;DHT22;58514;48.398;-4.274;2022-09-01T05:30:45;20.50;77.90
70269;DHT22;58514;48.398;-4.274;2022-09-01T05:33:12;20.40;77.80
70269;DHT22;58514;48.398;-4.274;2022-09-01T05:35:42;20.40;79.80
70269;DHT22;58514;48.398;-4.274;2022-09-01T05:38:17;20.40;78.10
70269;DHT22;58514;48.398;-4.274;2022-09-01T05:40:43;20.40;78.40
70269;DHT22;58514;48.398;-4.274;2022-09-01T05:43:10;20.40;78.70
70269;DHT22;58514;48.398;-4.274;2022-09-01T05:45:41;20.40;78.70
70269;DHT22;58514;48.398;-4.274;2022-09-01T05:48:13;20.40;79.10
70269;DHT22;58514;48.398;-4.274;2022-09-01T05:50:46;20.40;78.80
70269;DHT22;58514;48.398;-4.274;2022-09-01T05:53:14;20.40;79.10
70269;DHT22;58514;48.398;-4.274;2022-09-01T05:55:46;20.40;79.30
70269;DHT22;58514;48.398;-4.274;2022-09-01T05:58:14;20.40;79.30
70269;DHT22;58514;48.398;-4.274;2022-09-01T06:00:42;20.40;80.20
70269;DHT22;58514;48.398;-4.274;2022-09-01T06:03:10;20.40;80.60
70269;DHT22;58514;48.398;-4.274;2022-09-01T06:05:36;20.40;81.20
70269;DHT22;58514;48.398;-4.274;2022-09-01T06:08:04;20.30;80.10
70269;DHT22;58514;48.398;-4.274;2022-09-01T06:10:31;20.30;80.40
70269;DHT22;58514;48.398;-4.274;2022-09-01T06:12:57;20.30;80.60
70269;DHT22;58514;48.398;-4.274;2022-09-01T06:15:30;20.30;79.60
70269;DHT22;58514;48.398;-4.274;2022-09-01T06:17:57;20.30;79.90
70269;DHT22;58514;48.398;-4.274;2022-09-01T06:20:23;20.30;80.30
70269;DHT22;58514;48.398;-4.274;2022-09-01T06:22:49;20.30;80.20
70269;DHT22;58514;48.398;-4.274;2022-09-01T06:25:17;20.30;80.50
70269;DHT22;58514;48.398;-4.274;2022-09-01T06:27:44;20.30;79.80
70269;DHT22;58514;48.398;-4.274;2022-09-01T06:30:11;20.30;79.80
70269;DHT22;58514;48.398;-4.274;2022-09-01T06:32:42;20.30;80.50
70269;DHT22;58514;48.398;-4.274;2022-09-01T06:35:12;20.30;80.60
70269;DHT22;58514;48.398;-4.274;2022-09-01T06:37:40;20.30;80.80
70269;DHT22;58514;48.398;-4.274;2022-09-01T06:40:09;20.40;82.10
70269;DHT22;58514;48.398;-4.274;2022-09-01T06:42:35;20.40;80.50
70269;DHT22;58514;48.398;-4.274;2022-09-01T06:45:03;20.40;80.50
70269;DHT22;58514;48.398;-4.274;2022-09-01T06:47:35;20.40;80.40
70269;DHT22;58514;48.398;-4.274;2022-09-01T06:50:01;20.50;80.70
70269;DHT22;58514;48.398;-4.274;2022-09-01T06:52:27;20.50;81.30
70269;DHT22;58514;48.398;-4.274;2022-09-01T06:54:52;20.50;80.70
70269;DHT22;58514;48.398;-4.274;2022-09-01T06:57:19;20.50;81.00
70269;DHT22;58514;48.398;-4.274;2022-09-01T06:59:47;20.50;81.80
70269;DHT22;58514;48.398;-4.274;2022-09-01T07:02:14;20.60;80.90
70269;DHT22;58514;48.398;-4.274;2022-09-01T07:04:41;20.60;82.90
70269;DHT22;58514;48.398;-4.274;2022-09-01T07:07:11;20.60;81.70
70269;DHT22;58514;48.398;-4.274;2022-09-01T07:09:38;20.60;81.60
70269;DHT22;58514;48.398;-4.274;2022-09-01T07:12:07;20.60;80.90
70269;DHT22;58514;48.398;-4.274;2022-09-01T07:14:34;20.60;81.10
70269;DHT22;58514;48.398;-4.274;2022-09-01T07:17:00;20.60;81.70
70269;DHT22;58514;48.398;-4.274;2022-09-01T07:19:26;20.70;81.00
70269;DHT22;58514;48.398;-4.274;2022-09-01T07:21:52;20.70;81.10
70269;DHT22;58514;48.398;-4.274;2022-09-01T07:24:18;20.70;80.80
70269;DHT22;58514;48.398;-4.274;2022-09-01T07:26:45;20.70;80.80
70269;DHT22;58514;48.398;-4.274;2022-09-01T07:29:14;20.70;81.40
70269;DHT22;58514;48.398;-4.274;2022-09-01T07:31:41;20.70;80.90
70269;DHT22;58514;48.398;-4.274;2022-09-01T07:34:10;20.70;80.90
70269;DHT22;58514;48.398;-4.274;2022-09-01T07:36:41;20.60;80.60
70269;DHT22;58514;48.398;-4.274;2022-09-01T07:39:09;20.70;81.60
70269;DHT22;58514;48.398;-4.274;2022-09-01T07:41:35;20.70;81.20
70269;DHT22;58514;48.398;-4.274;2022-09-01T07:44:03;20.70;81.30
70269;DHT22;58514;48.398;-4.274;2022-09-01T07:46:30;20.70;81.40
70269;DHT22;58514;48.398;-4.274;2022-09-01T07:48:58;20.80;82.10
70269;DHT22;58514;48.398;-4.274;2022-09-01T07:51:24;20.80;82.60
70269;DHT22;58514;48.398;-4.274;2022-09-01T07:53:51;20.90;82.40
70269;DHT22;58514;48.398;-4.274;2022-09-01T07:56:18;21.00;83.30
70269;DHT22;58514;48.398;-4.274;2022-09-01T07:58:46;21.20;82.90
70269;DHT22;58514;48.398;-4.274;2022-09-01T08:01:15;21.20;82.00
70269;DHT22;58514;48.398;-4.274;2022-09-01T08:03:44;21.20;82.70
70269;DHT22;58514;48.398;-4.274;2022-09-01T08:06:12;21.30;82.30
70269;DHT22;58514;48.398;-4.274;2022-09-01T08:08:39;21.40;82.10
70269;DHT22;58514;48.398;-4.274;2022-09-01T08:11:05;21.40;81.80
70269;DHT22;58514;48.398;-4.274;2022-09-01T08:13:36;21.50;82.10
70269;DHT22;58514;48.398;-4.274;2022-09-01T08:16:05;21.50;81.20
70269;DHT22;58514;48.398;-4.274;2022-09-01T08:18:32;21.50;81.00
70269;DHT22;58514;48.398;-4.274;2022-09-01T08:20:58;21.50;80.70
70269;DHT22;58514;48.398;-4.274;2022-09-01T08:23:24;21.50;80.90
70269;DHT22;58514;48.398;-4.274;2022-09-01T08:25:52;21.50;80.70
70269;DHT22;58514;48.398;-4.274;2022-09-01T08:28:18;21.40;80.50
70269;DHT22;58514;48.398;-4.274;2022-09-01T08:30:45;21.40;81.20
70269;DHT22;58514;48.398;-4.274;2022-09-01T08:33:13;21.40;81.10
70269;DHT22;58514;48.398;-4.274;2022-09-01T08:35:39;21.40;81.00
70269;DHT22;58514;48.398;-4.274;2022-09-01T08:38:06;21.40;80.80
70269;DHT22;58514;48.398;-4.274;2022-09-01T08:40:32;21.40;80.90
70269;DHT22;58514;48.398;-4.274;2022-09-01T08:43:42;21.40;80.90
70269;DHT22;58514;48.398;-4.274;2022-09-01T08:46:25;21.40;80.80
70269;DHT22;58514;48.398;-4.274;2022-09-01T08:48:55;21.40;80.60
70269;DHT22;58514;48.398;-4.274;2022-09-01T08:51:55;21.40;80.60
70269;DHT22;58514;48.398;-4.274;2022-09-01T08:54:43;21.40;80.80
70269;DHT22;58514;48.398;-4.274;2022-09-01T08:57:14;21.40;81.20
70269;DHT22;58514;48.398;-4.274;2022-09-01T08:59:41;21.40;81.40
70269;DHT22;58514;48.398;-4.274;2022-09-01T09:10:45;21.70;82.50
70269;DHT22;58514;48.398;-4.274;2022-09-01T09:16:11;21.90;82.70
70269;DHT22;58514;48.398;-4.274;2022-09-01T09:18:56;22.10;82.60
70269;DHT22;58514;48.398;-4.274;2022-09-01T09:21:29;22.20;82.90
70269;DHT22;58514;48.398;-4.274;2022-09-01T09:26:35;22.60;82.80
70269;DHT22;58514;48.398;-4.274;2022-09-01T09:29:01;22.70;82.50
70269;DHT22;58514;48.398;-4.274;2022-09-01T09:31:34;22.80;81.90
70269;DHT22;58514;48.398;-4.274;2022-09-01T09:34:01;22.90;80.60
70269;DHT22;58514;48.398;-4.274;2022-09-01T09:36:34;22.90;80.20
70269;DHT22;58514;48.398;-4.274;2022-09-01T09:39:10;22.90;79.50
70269;DHT22;58514;48.398;-4.274;2022-09-01T09:41:36;22.90;79.50
70269;DHT22;58514;48.398;-4.274;2022-09-01T09:44:26;22.90;79.60
70269;DHT22;58514;48.398;-4.274;2022-09-01T09:46:54;22.90;79.40
70269;DHT22;58514;48.398;-4.274;2022-09-01T09:54:36;23.10;80.70
70269;DHT22;58514;48.398;-4.274;2022-09-01T10:00:01;23.40;79.90
70269;DHT22;58514;48.398;-4.274;2022-09-01T10:04:55;23.70;81.60
70269;DHT22;58514;48.398;-4.274;2022-09-01T10:07:24;24.20;86.90
70269;DHT22;58514;48.398;-4.274;2022-09-01T10:09:53;24.90;82.40
70269;DHT22;58514;48.398;-4.274;2022-09-01T10:12:21;25.50;87.80
70269;DHT22;58514;48.398;-4.274;2022-09-01T10:14:52;26.20;87.30
70269;DHT22;58514;48.398;-4.274;2022-09-01T10:17:52;27.00;86.40
70269;DHT22;58514;48.398;-4.274;2022-09-01T10:20:24;27.70;80.30
70269;DHT22;58514;48.398;-4.274;2022-09-01T10:22:50;27.80;74.70
70269;DHT22;58514;48.398;-4.274;2022-09-01T10:25:20;27.70;69.80
70269;DHT22;58514;48.398;-4.274;2022-09-01T10:27:49;27.40;69.20
70269;DHT22;58514;48.398;-4.274;2022-09-01T10:30:19;27.20;68.60
70269;DHT22;58514;48.398;-4.274;2022-09-01T10:32:55;27.20;70.00
70269;DHT22;58514;48.398;-4.274;2022-09-01T10:35:45;27.10;66.80
70269;DHT22;58514;48.398;-4.274;2022-09-01T10:38:20;27.00;66.70
70269;DHT22;58514;48.398;-4.274;2022-09-01T10:40:51;26.70;66.10
70269;DHT22;58514;48.398;-4.274;2022-09-01T10:43:47;26.40;66.80
70269;DHT22;58514;48.398;-4.274;2022-09-01T10:48:54;26.70;68.20
70269;DHT22;58514;48.398;-4.274;2022-09-01T10:53:49;26.70;67.30
70269;DHT22;58514;48.398;-4.274;2022-09-01T10:56:39;26.70;66.60
70269;DHT22;58514;48.398;-4.274;2022-09-01T11:07:05;28.10;66.90
70269;DHT22;58514;48.398;-4.274;2022-09-01T11:13:06;27.60;62.80
70269;DHT22;58514;48.398;-4.274;2022-09-01T11:15:40;27.30;63.70
70269;DHT22;58514;48.398;-4.274;2022-09-01T11:18:15;27.00;63.20
70269;DHT22;58514;48.398;-4.274;2022-09-01T11:20:42;26.70;63.30
70269;DHT22;58514;48.398;-4.274;2022-09-01T11:23:25;26.50;63.50
70269;DHT22;58514;48.398;-4.274;2022-09-01T11:26:01;26.20;63.00
70269;DHT22;58514;48.398;-4.274;2022-09-01T11:28:39;26.00;63.30
70269;DHT22;58514;48.398;-4.274;2022-09-01T11:34:30;25.60;63.30
70269;DHT22;58514;48.398;-4.274;2022-09-01T11:39:31;25.30;63.40
70269;DHT22;58514;48.398;-4.274;2022-09-01T11:42:02;25.30;64.90
70269;DHT22;58514;48.398;-4.274;2022-09-01T11:44:41;25.20;65.50
70269;DHT22;58514;48.398;-4.274;2022-09-01T11:47:36;25.40;65.20
70269;DHT22;58514;48.398;-4.274;2022-09-01T11:52:34;25.80;66.70
70269;DHT22;58514;48.398;-4.274;2022-09-01T11:55:03;26.10;64.90
70269;DHT22;58514;48.398;-4.274;2022-09-01T11:57:32;26.30;63.00
70269;DHT22;58514;48.398;-4.274;2022-09-01T12:00:00;26.40;64.10
70269;DHT22;58514;48.398;-4.274;2022-09-01T12:02:32;26.70;64.90
70269;DHT22;58514;48.398;-4.274;2022-09-01T12:05:00;27.10;64.10
70269;DHT22;58514;48.398;-4.274;2022-09-01T12:10:01;27.80;63.30
70269;DHT22;58514;48.398;-4.274;2022-09-01T12:12:34;28.10;63.00
70269;DHT22;58514;48.398;-4.274;2022-09-01T12:15:24;28.10;62.20
70269;DHT22;58514;48.398;-4.274;2022-09-01T12:17:52;28.00;60.20
70269;DHT22;58514;48.398;-4.274;2022-09-01T12:20:24;27.80;60.10
70269;DHT22;58514;48.398;-4.274;2022-09-01T12:22:51;27.60;60.10
70269;DHT22;58514;48.398;-4.274;2022-09-01T12:25:29;27.30;59.30
70269;DHT22;58514;48.398;-4.274;2022-09-01T12:27:57;27.00;59.50
70269;DHT22;58514;48.398;-4.274;2022-09-01T12:30:24;26.70;59.70
70269;DHT22;58514;48.398;-4.274;2022-09-01T12:32:50;26.50;59.90
70269;DHT22;58514;48.398;-4.274;2022-09-01T12:35:21;26.40;60.30
70269;DHT22;58514;48.398;-4.274;2022-09-01T12:37:47;26.30;61.00
70269;DHT22;58514;48.398;-4.274;2022-09-01T12:40:31;26.20;60.20
70269;DHT22;58514;48.398;-4.274;2022-09-01T12:42:57;26.00;60.00
70269;DHT22;58514;48.398;-4.274;2022-09-01T12:45:39;25.90;60.40
70269;DHT22;58514;48.398;-4.274;2022-09-01T12:48:06;25.80;61.10
70269;DHT22;58514;48.398;-4.274;2022-09-01T12:50:34;25.70;61.20
70269;DHT22;58514;48.398;-4.274;2022-09-01T12:53:02;25.70;61.20
70269;DHT22;58514;48.398;-4.274;2022-09-01T12:55:34;25.60;60.70
70269;DHT22;58514;48.398;-4.274;2022-09-01T12:58:02;25.50;60.30
70269;DHT22;58514;48.398;-4.274;2022-09-01T13:00:37;25.40;60.90
70269;DHT22;58514;48.398;-4.274;2022-09-01T13:03:18;25.10;60.90
70269;DHT22;58514;48.398;-4.274;2022-09-01T13:05:57;25.00;61.50
70269;DHT22;58514;48.398;-4.274;2022-09-01T13:08:31;24.80;62.10
70269;DHT22;58514;48.398;-4.274;2022-09-01T13:11:08;24.80;62.30
70269;DHT22;58514;48.398;-4.274;2022-09-01T13:13:34;24.70;63.00
70269;DHT22;58514;48.398;-4.274;2022-09-01T13:16:01;24.60;63.40
70269;DHT22;58514;48.398;-4.274;2022-09-01T13:18:38;24.60;63.40
70269;DHT22;58514;48.398;-4.274;2022-09-01T13:21:04;24.60;63.60
70269;DHT22;58514;48.398;-4.274;2022-09-01T13:23:30;24.50;63.30
70269;DHT22;58514;48.398;-4.274;2022-09-01T13:25:56;24.40;64.30
70269;DHT22;58514;48.398;-4.274;2022-09-01T13:28:24;24.30;63.80
70269;DHT22;58514;48.398;-4.274;2022-09-01T13:30:59;24.30;64.00
70269;DHT22;58514;48.398;-4.274;2022-09-01T13:33:26;24.30;64.70
70269;DHT22;58514;48.398;-4.274;2022-09-01T13:35:53;24.40;64.80
70269;DHT22;58514;48.398;-4.274;2022-09-01T13:38:20;24.40;64.80
70269;DHT22;58514;48.398;-4.274;2022-09-01T13:40:47;24.40;64.60
70269;DHT22;58514;48.398;-4.274;2022-09-01T13:43:15;24.40;64.70
70269;DHT22;58514;48.398;-4.274;2022-09-01T13:45:41;24.30;65.50
70269;DHT22;58514;48.398;-4.274;2022-09-01T13:48:07;24.30;66.00
70269;DHT22;58514;48.398;-4.274;2022-09-01T13:50:33;24.20;65.10
70269;DHT22;58514;48.398;-4.274;2022-09-01T13:52:59;24.20;65.40
70269;DHT22;58514;48.398;-4.274;2022-09-01T13:55:28;24.30;66.20
70269;DHT22;58514;48.398;-4.274;2022-09-01T13:57:54;24.20;65.60
70269;DHT22;58514;48.398;-4.274;2022-09-01T14:00:23;24.30;66.40
70269;DHT22;58514;48.398;-4.274;2022-09-01T14:02:52;24.20;66.00
70269;DHT22;58514;48.398;-4.274;2022-09-01T14:05:21;24.30;67.10
70269;DHT22;58514;48.398;-4.274;2022-09-01T14:07:47;24.20;66.10
70269;DHT22;58514;48.398;-4.274;2022-09-01T14:10:14;24.10;66.20
70269;DHT22;58514;48.398;-4.274;2022-09-01T14:12:41;24.10;66.10
70269;DHT22;58514;48.398;-4.274;2022-09-01T14:15:08;24.00;66.00
70269;DHT22;58514;48.398;-4.274;2022-09-01T14:17:36;24.00;66.00
70269;DHT22;58514;48.398;-4.274;2022-09-01T14:20:08;23.90;66.70
70269;DHT22;58514;48.398;-4.274;2022-09-01T14:22:37;23.90;66.10
70269;DHT22;58514;48.398;-4.274;2022-09-01T14:25:06;23.80;66.50
70269;DHT22;58514;48.398;-4.274;2022-09-01T14:27:32;23.80;66.50
70269;DHT22;58514;48.398;-4.274;2022-09-01T14:29:57;23.80;66.70
70269;DHT22;58514;48.398;-4.274;2022-09-01T14:32:23;23.80;66.80
70269;DHT22;58514;48.398;-4.274;2022-09-01T14:34:52;23.70;66.90
70269;DHT22;58514;48.398;-4.274;2022-09-01T14:37:18;23.70;67.20
70269;DHT22;58514;48.398;-4.274;2022-09-01T14:39:53;23.70;67.50
70269;DHT22;58514;48.398;-4.274;2022-09-01T14:42:20;23.60;67.80
70269;DHT22;58514;48.398;-4.274;2022-09-01T14:44:47;23.60;68.00
70269;DHT22;58514;48.398;-4.274;2022-09-01T14:47:13;23.60;69.00
70269;DHT22;58514;48.398;-4.274;2022-09-01T14:49:39;23.60;68.90
70269;DHT22;58514;48.398;-4.274;2022-09-01T14:52:06;23.70;69.10
70269;DHT22;58514;48.398;-4.274;2022-09-01T14:54:40;23.70;68.80
70269;DHT22;58514;48.398;-4.274;2022-09-01T14:57:07;23.70;68.70
70269;DHT22;58514;48.398;-4.274;2022-09-01T14:59:32;23.60;68.80
70269;DHT22;58514;48.398;-4.274;2022-09-01T15:01:59;23.60;68.80
70269;DHT22;58514;48.398;-4.274;2022-09-01T15:04:24;23.50;69.10
70269;DHT22;58514;48.398;-4.274;2022-09-01T15:06:50;23.60;69.40
70269;DHT22;58514;48.398;-4.274;2022-09-01T15:09:16;23.50;71.40
70269;DHT22;58514;48.398;-4.274;2022-09-01T15:11:42;23.50;70.70
70269;DHT22;58514;48.398;-4.274;2022-09-01T15:14:08;23.50;71.80
70269;DHT22;58514;48.398;-4.274;2022-09-01T15:16:34;23.40;71.90
70269;DHT22;58514;48.398;-4.274;2022-09-01T15:19:05;23.40;70.50
70269;DHT22;58514;48.398;-4.274;2022-09-01T15:21:33;23.30;70.80
70269;DHT22;58514;48.398;-4.274;2022-09-01T15:24:00;23.30;70.40
70269;DHT22;58514;48.398;-4.274;2022-09-01T15:26:27;23.30;70.50
70269;DHT22;58514;48.398;-4.274;2022-09-01T15:28:53;23.30;71.10
70269;DHT22;58514;48.398;-4.274;2022-09-01T15:31:20;23.30;70.90
70269;DHT22;58514;48.398;-4.274;2022-09-01T15:33:47;23.30;71.30
70269;DHT22;58514;48.398;-4.274;2022-09-01T15:36:18;23.30;70.90
70269;DHT22;58514;48.398;-4.274;2022-09-01T15:38:44;23.30;70.90
70269;DHT22;58514;48.398;-4.274;2022-09-01T15:41:16;23.40;71.50
70269;DHT22;58514;48.398;-4.274;2022-09-01T15:43:42;23.40;71.20
70269;DHT22;58514;48.398;-4.274;2022-09-01T15:46:07;23.40;71.10
70269;DHT22;58514;48.398;-4.274;2022-09-01T15:48:33;23.40;71.60
70269;DHT22;58514;48.398;-4.274;2022-09-01T15:51:29;23.40;71.70
70269;DHT22;58514;48.398;-4.274;2022-09-01T15:54:18;23.40;71.50
70269;DHT22;58514;48.398;-4.274;2022-09-01T15:56:44;23.40;72.10
70269;DHT22;58514;48.398;-4.274;2022-09-01T15:59:11;23.30;71.60
70269;DHT22;58514;48.398;-4.274;2022-09-01T16:01:40;23.30;71.60
70269;DHT22;58514;48.398;-4.274;2022-09-01T16:04:08;23.30;71.70
70269;DHT22;58514;48.398;-4.274;2022-09-01T16:06:36;23.30;71.90
70269;DHT22;58514;48.398;-4.274;2022-09-01T16:09:02;23.30;72.30
70269;DHT22;58514;48.398;-4.274;2022-09-01T16:11:27;23.30;72.20
70269;DHT22;58514;48.398;-4.274;2022-09-01T16:13:54;23.30;72.80
70269;DHT22;58514;48.398;-4.274;2022-09-01T16:19:09;23.20;72.40
70269;DHT22;58514;48.398;-4.274;2022-09-01T16:24:24;23.20;72.50
70269;DHT22;58514;48.398;-4.274;2022-09-01T16:26:50;23.30;73.00
70269;DHT22;58514;48.398;-4.274;2022-09-01T16:29:27;23.20;72.80
70269;DHT22;58514;48.398;-4.274;2022-09-01T16:31:57;23.20;72.70